Latest Weather Observations for Gooseberry Hill

IDW60801

Issued at 10:23 pm WST Wednesday 8 July 2020 (issued every 10 minutes, with the page automatically refreshed every 10 minutes)

About weather observations | Map of weather stations | Latest weather observations for WA | Other Formats
Station Details ID: 009204 Name: GOOSEBERRY HILL Lat: -31.94 Lon: 116.05 Height: 220.0 m
Data from the previous 72 hours. | See also: Recent months at Gooseberry Hill
Date/Time
WST
Temp
°C
App
Temp
°C
Dew
Point
°C
Rel
Hum
%
Delta-T
°C
Wind Press
QNH
hPa
Press
MSL
hPa
Rain since
9am
mm
Dir  Spd
km/h
Gust
km/h
Spd
kts
Gust
kts
08/10:00pm 11.6 9.1 6.5 71 2.4 SSE 9 13 5 7 - - -
08/09:30pm 12.0 9.5 6.7 70 2.6 SE 9 15 5 8 - - -
08/09:00pm 12.1 8.5 6.8 70 2.6 SSE 15 20 8 11 - - -
08/08:30pm 12.0 8.1 6.9 71 2.5 S 17 22 9 12 - - -
08/08:00pm 11.9 8.8 7.2 73 2.3 S 13 19 7 10 - - -
08/07:30pm 11.8 8.3 7.1 73 2.3 S 15 22 8 12 - - -
08/07:00pm 11.9 8.9 7.8 76 2.0 SSW 13 22 7 12 - - -
08/06:30pm 11.8 10.2 8.6 81 1.6 SSW 7 11 4 6 - - -
08/06:00pm 12.0 10.3 8.5 79 1.8 SSW 7 11 4 6 - - -
08/05:30pm 12.4 10.7 8.5 77 2.0 SSW 7 13 4 7 - - -
08/05:00pm 12.9 11.4 9.2 78 1.9 SW 7 11 4 6 - - -
08/04:30pm 12.9 11.7 9.5 80 1.7 SSW 6 9 3 5 - - -
08/04:00pm 13.3 11.9 9.5 78 2.0 SW 7 11 4 6 - - -
08/03:30pm 13.7 13.1 10.5 81 1.7 SW 4 7 2 4 - - -
08/03:00pm 13.3 13.7 11.2 87 1.1 CALM 0 4 0 2 - - -
08/02:30pm 12.7 12.2 10.9 89 1.0 ENE 4 7 2 4 - - -
08/02:00pm 12.3 12.5 10.4 88 1.0 CALM 0 0 0 0 - - -
08/01:30pm 12.4 10.9 10.5 88 1.0 SSW 9 17 5 9 - - -
08/01:00pm 12.5 10.8 9.7 83 1.4 S 9 19 5 10 - - -
08/12:30pm 13.4 11.8 8.7 73 2.4 SW 7 17 4 9 - - -
08/12:00pm 14.1 12.5 8.7 70 2.8 WSW 7 13 4 7 - - -
08/11:30am 14.2 13.3 9.2 72 2.6 SW 4 9 2 5 - - -
08/11:00am 13.8 12.8 9.0 73 2.5 W 4 6 2 3 - - -
08/10:30am 13.4 12.6 9.5 77 2.0 NNW 4 7 2 4 - - -
08/10:00am 12.9 12.5 9.9 82 1.6 WSW 2 6 1 3 - - -
08/09:30am 12.9 12.9 9.7 81 1.7 CALM 0 2 0 1 - - -
08/09:00am 12.2 10.8 7.1 71 2.5 ESE 4 7 2 4 - - -
08/08:30am 11.7 9.9 7.2 74 2.2 SE 6 7 3 4 - - -
08/08:00am 11.1 9.0 6.6 74 2.1 SSE 7 11 4 6 - - -
08/07:30am 11.2 9.3 6.7 74 2.2 SSE 6 6 3 3 - - -
08/07:00am 10.9 8.9 7.2 78 1.8 SSE 7 9 4 5 - - -
08/06:30am 10.6 8.8 8.0 84 1.3 S 7 9 4 5 - - -
08/06:00am 10.7 10.2 9.3 91 0.7 E 2 4 1 2 - - -
08/05:30am 10.7 10.6 9.5 92 0.6 CALM 0 0 0 0 - - -
08/05:00am 10.4 9.6 9.6 95 0.4 E 4 6 2 3 - - -
08/04:30am 10.7 10.0 9.9 95 0.4 E 4 7 2 4 - - -
08/04:00am 11.1 9.4 9.7 91 0.7 SSW 9 15 5 8 - - -
08/03:30am 11.6 10.1 8.5 81 1.5 SSW 6 9 3 5 - - -
08/03:00am 11.9 8.7 8.4 79 1.7 S 15 22 8 12 - - -
08/02:30am 11.7 9.1 9.3 85 1.2 S 13 22 7 12 - - -
08/02:00am 11.5 8.3 9.9 90 0.8 S 17 22 9 12 - - -
08/01:30am 11.3 9.2 11.3 100 0.0 SSE 13 20 7 11 - - -
08/01:00am 11.3 8.9 11.3 100 0.0 S 15 22 8 12 - - -
08/12:30am 11.5 9.1 11.5 100 0.0 SSW 15 24 8 13 - - -
08/12:00am 11.8 9.5 11.8 100 0.0 SSW 15 33 8 18 - - -
 
Date/Time
WST
Temp
°C
App
Temp
°C
Dew
Point
°C
Rel
Hum
%
Delta-T
°C
Wind Press
QNH
hPa
Press
MSL
hPa
Rain since
9am
mm
Dir  Spd
km/h
Gust
km/h
Spd
kts
Gust
kts
07/11:30pm 11.5 10.3 11.5 100 0.0 WSW 9 13 5 7 - - -
07/11:00pm 11.5 9.9 11.5 100 0.0 WNW 11 19 6 10 - - -
07/10:30pm 11.6 9.6 11.6 100 0.0 N 13 17 7 9 - - -
07/10:00pm 11.5 9.9 11.5 100 0.0 N 11 17 6 9 - - -
07/09:30pm 11.5 9.9 11.5 100 0.0 NNW 11 17 6 9 - - -
07/09:00pm 11.6 10.4 11.6 100 0.0 NW 9 13 5 7 - - -
07/08:30pm 11.9 10.8 11.9 100 0.0 NNW 9 13 5 7 - - -
07/08:00pm 11.9 10.4 11.9 100 0.0 WNW 11 13 6 7 - - -
07/07:30pm 12.1 10.7 12.1 100 0.0 W 11 24 6 13 - - -
07/07:00pm 12.2 10.8 12.2 100 0.0 WSW 11 15 6 8 - - -
07/06:30pm 12.1 10.3 12.1 100 0.0 WSW 13 19 7 10 - - -
07/06:00pm 12.6 11.3 12.4 99 0.1 WNW 11 17 6 9 - - -
07/05:30pm 12.4 12.1 11.5 94 0.5 W 4 7 2 4 - - -
07/05:00pm 13.0 12.2 11.7 92 0.7 WSW 7 11 4 6 - - -
07/04:30pm 13.1 11.0 11.3 89 1.0 WSW 13 19 7 10 - - -
07/04:00pm 12.9 10.2 11.8 93 0.6 WSW 17 24 9 13 - - -
07/03:30pm 12.7 9.8 12.2 97 0.3 W 19 32 10 17 - - -
07/03:00pm 14.4 12.2 10.8 79 1.9 W 13 22 7 12 - - -
07/02:30pm 14.9 13.6 12.4 85 1.4 W 11 17 6 9 - - -
07/02:00pm 12.9 10.6 11.8 93 0.6 W 15 30 8 16 - - -
07/01:30pm 14.0 10.1 9.6 75 2.3 W 20 33 11 18 - - -
07/01:00pm 14.4 10.1 9.2 71 2.7 WSW 22 33 12 18 - - -
07/12:30pm 15.0 13.0 11.6 80 1.8 WSW 13 22 7 12 - - -
07/12:00pm 15.4 13.6 10.8 74 2.5 W 11 28 6 15 - - -
07/11:30am 14.2 13.7 12.2 88 1.1 NW 6 13 3 7 - - -
07/11:00am 13.7 11.9 10.9 83 1.5 WSW 11 17 6 9 - - -
07/10:30am 13.6 13.4 11.8 89 1.0 WNW 4 9 2 5 - - -
07/10:00am 13.1 13.0 12.0 93 0.6 NNW 4 7 2 4 - - -
07/09:30am 12.7 12.0 11.3 91 0.7 NNW 6 7 3 4 - - -
07/09:00am 12.9 12.3 11.6 92 0.7 NNW 6 11 3 6 - - -
07/08:30am 11.9 11.0 10.6 92 0.7 NNW 6 11 3 6 - - -
07/08:00am 11.4 9.8 10.3 93 0.6 NNE 9 17 5 9 - - -
07/07:30am 11.6 9.9 9.7 88 1.0 NNW 9 13 5 7 - - -
07/07:00am 11.7 10.9 9.8 88 1.0 WNW 4 9 2 5 - - -
07/06:30am 11.9 10.6 9.8 87 1.1 SW 7 15 4 8 - - -
07/06:00am 11.6 9.6 10.3 92 0.7 WNW 11 20 6 11 - - -
07/05:30am 11.4 10.1 10.1 92 0.7 NW 7 11 4 6 - - -
07/05:00am 11.3 9.5 9.6 89 0.9 NW 9 17 5 9 - - -
07/04:30am 12.6 9.6 7.7 72 2.4 W 13 19 7 10 - - -
07/04:00am 12.3 9.0 8.0 75 2.1 WSW 15 20 8 11 - - -
07/03:30am 12.0 9.6 8.7 80 1.7 WSW 11 17 6 9 - - -
07/03:00am 12.2 9.9 9.0 81 1.6 W 11 20 6 11 - - -
07/02:30am 12.2 8.9 9.4 83 1.4 WSW 17 28 9 15 - - -
07/02:00am 12.5 10.5 8.8 78 1.9 WNW 9 15 5 8 - - -
07/01:30am 12.6 9.5 8.7 77 2.0 WSW 15 19 8 10 - - -
07/01:00am 13.0 9.6 9.3 78 1.9 WSW 17 24 9 13 - - -
07/12:30am 13.0 9.9 8.7 75 2.2 W 15 24 8 13 - - -
07/12:00am 13.0 9.0 8.1 72 2.5 WSW 19 24 10 13 - - -
 
Date/Time
WST
Temp
°C
App
Temp
°C
Dew
Point
°C
Rel
Hum
%
Delta-T
°C
Wind Press
QNH
hPa
Press
MSL
hPa
Rain since
9am
mm
Dir  Spd
km/h
Gust
km/h
Spd
kts
Gust
kts
06/11:30pm 12.9 9.2 9.4 79 1.8 WSW 19 24 10 13 - - -
06/11:00pm 13.0 9.3 9.3 78 1.9 W 19 28 10 15 - - -
06/10:30pm 13.0 8.6 9.1 77 2.0 WSW 22 32 12 17 - - -
06/10:00pm 13.1 8.5 9.7 80 1.8 WSW 24 39 13 21 - - -
06/09:30pm 12.6 8.8 9.8 83 1.4 WSW 20 32 11 17 - - -
06/09:00pm 12.4 8.6 9.8 84 1.3 WSW 20 28 11 15 - - -
06/08:30pm 12.4 9.6 11.5 94 0.5 WSW 17 20 9 11 - - -
06/08:00pm 12.5 10.0 12.3 99 0.1 WSW 17 26 9 14 - - -
06/07:30pm 12.5 9.1 12.5 100 0.0 WSW 22 33 12 18 - - -
06/07:00pm 12.5 8.3 12.5 100 0.0 WSW 26 44 14 24 - - -
06/06:30pm 12.5 9.1 12.5 100 0.0 WSW 22 32 12 17 - - -
06/06:00pm 12.7 9.0 12.7 100 0.0 WSW 24 32 13 17 - - -
06/05:30pm 12.5 8.7 12.5 100 0.0 WSW 24 35 13 19 - - -
06/05:24pm 12.7 8.2 12.7 100 0.0 WSW 28 46 15 25 - - -
06/05:00pm 12.8 9.9 12.8 100 0.0 W 20 33 11 18 - - -
06/04:30pm 13.2 8.9 13.2 100 0.0 WSW 28 46 15 25 - - -
06/04:26pm 13.4 9.1 13.2 99 0.1 WSW 28 46 15 25 - - -
06/04:00pm 13.6 10.2 13.6 100 0.0 W 24 41 13 22 - - -
06/03:30pm 13.4 10.7 13.4 100 0.0 W 20 37 11 20 - - -
06/03:00pm 13.6 10.9 13.6 100 0.0 W 20 35 11 19 - - -
06/02:30pm 13.7 9.1 12.4 92 0.7 WSW 28 43 15 23 - - -
06/02:06pm 16.1 10.5 8.8 62 3.8 WNW 28 46 15 25 - - -
06/02:00pm 16.8 12.5 9.5 62 3.8 WNW 22 46 12 25 - - -
06/01:33pm 17.0 11.4 8.7 58 4.3 W 28 54 15 29 - - -
06/01:30pm 17.1 11.9 9.0 59 4.2 WNW 26 54 14 29 - - -
06/01:01pm 15.9 10.4 9.1 64 3.5 W 28 52 15 28 - - -
06/01:00pm 15.7 10.6 9.1 65 3.4 W 26 52 14 28 - - -
06/12:30pm 16.9 13.2 11.4 70 3.0 WNW 22 46 12 25 - - -
06/12:00pm 17.1 11.6 9.3 60 4.1 WNW 28 50 15 27 - - -
06/11:30am 15.8 11.4 10.3 70 2.9 WNW 24 43 13 23 - - -
06/11:00am 16.3 12.2 10.2 67 3.3 NW 22 39 12 21 - - -
06/10:30am 14.7 12.8 13.1 90 0.9 NNW 15 22 8 12 - - -
06/10:00am 13.0 10.6 12.5 97 0.3 NNW 17 28 9 15 - - -
06/09:30am 13.1 10.3 12.6 97 0.3 N 19 26 10 14 - - -
06/09:00am 13.0 10.3 13.0 100 0.0 N 19 28 10 15 - - -
06/08:30am 11.9 9.6 11.9 100 0.0 NNW 15 26 8 14 - - -
06/08:00am 11.9 9.3 11.9 100 0.0 N 17 22 9 12 - - -
06/07:30am 12.0 9.8 12.0 100 0.0 N 15 20 8 11 - - -
06/07:00am 12.0 9.8 12.0 100 0.0 N 15 22 8 12 - - -
06/06:30am 12.1 10.3 12.1 100 0.0 NNW 13 24 7 13 - - -
06/06:00am 12.0 10.9 12.0 100 0.0 NNW 9 13 5 7 - - -
06/05:30am 12.5 10.4 12.5 100 0.0 NNW 15 26 8 14 - - -
06/05:00am 12.5 10.8 12.5 100 0.0 N 13 19 7 10 - - -
06/04:30am 12.7 11.5 12.7 100 0.0 NNW 11 19 6 10 - - -
06/04:00am 13.1 11.4 12.6 97 0.3 NNW 13 24 7 13 - - -
06/03:30am 13.4 11.3 12.3 93 0.6 N 15 24 8 13 - - -
06/03:00am 13.7 11.7 12.8 94 0.5 NNW 15 20 8 11 - - -
06/02:30am 13.9 12.3 12.8 93 0.6 NW 13 20 7 11 - - -
06/02:00am 14.2 12.6 11.7 85 1.4 NNW 11 15 6 8 - - -
06/01:30am 14.4 13.2 11.7 84 1.5 NNE 9 15 5 8 - - -
06/01:00am 14.1 13.3 11.6 85 1.4 N 7 9 4 5 - - -
06/12:30am 13.7 13.9 13.1 96 0.3 NE 4 6 2 3 - - -
06/12:00am 13.4 14.0 13.1 98 0.2 SW 2 4 1 2 - - -
 
Date/Time
WST
Temp
°C
App
Temp
°C
Dew
Point
°C
Rel
Hum
%
Delta-T
°C
Wind Press
QNH
hPa
Press
MSL
hPa
Rain since
9am
mm
Dir  Spd
km/h
Gust
km/h
Spd
kts
Gust
kts
05/11:30pm 13.6 13.4 13.6 100 0.0 SSW 7 13 4 7 - - -
05/11:00pm 14.0 12.8 14.0 100 0.0 SW 13 19 7 10 - - -
05/10:30pm 14.5 12.1 14.5 100 0.0 SW 20 33 11 18 - - -

Other formats

Comma delimited format used in spreadsheet applications
http://www.bom.gov.au/fwo/IDW60801/IDW60801.94615.axf

JavaScript Object Notation format (JSON) in row-major order
http://www.bom.gov.au/fwo/IDW60801/IDW60801.94615.json

Data quality

Most of these data are generated automatically and are frequently updated. Quality checks on data are not normally performed. It is possible for incorrect values to appear. Refer to information at About Latest Weather Observations and please check the disclaimer before using these data.